PILOTS ONLINE: 320    ATC ONLINE: 56

KTRM

Jacqueline Cochran Regional Airport

Location

City Palm Springs
Country  United States
Latitude 33° 37' 36" N
Longitude 116° 9' 36" W
Elevation -115 ft
Type Medium Airport

Map

Weather

METAR
2014/09/30 20:52
KTRM 302052Z AUTO VRB03KT 10SM CLR 36/03 A2970 RMK AO2 SLP061 T03560028 58031 TSNO
TAF
2014/09/30 18:21
TAF KTRM 301720Z 3018/0118 VRB05KT P6SM SKC 
     FM302000 14008KT P6SM SKC 
     FM010100 VRB05KT P6SM SKC

Runways

12/30 4995 ft / 100 ft
17/35 8500 ft / 150 ft

Outbound flights

Callsign Flying to Pilot ATD/STD ETA Aircraft

Inbound flights

Callsign Flying from Pilot ATD ETA Aircraft